createdAt,value
2023-02-06T00:01:17.186Z,-3.9
2023-02-06T00:04:04.992Z,-3.9
2023-02-06T00:06:52.472Z,-3.9
2023-02-06T00:09:40.024Z,-4
2023-02-06T00:12:27.977Z,-3.9
2023-02-06T00:15:15.325Z,-3.8
2023-02-06T00:18:02.640Z,-3.8
2023-02-06T00:20:50.083Z,-3.8
2023-02-06T00:23:37.408Z,-3.8
2023-02-06T00:26:25.655Z,-3.8
2023-02-06T00:29:14.201Z,-3.8
2023-02-06T00:32:01.585Z,-3.7
2023-02-06T00:34:49.304Z,-3.7
2023-02-06T00:37:36.784Z,-3.7
2023-02-06T00:40:24.211Z,-3.7
2023-02-06T00:43:11.581Z,-3.6
2023-02-06T00:45:58.894Z,-3.6
2023-02-06T00:48:46.360Z,-3.5
2023-02-06T00:51:33.769Z,-3.5
2023-02-06T00:54:23.368Z,-3.5
2023-02-06T00:57:10.754Z,-3.5
2023-02-06T00:59:57.995Z,-3.5
2023-02-06T01:02:45.289Z,-3.5
2023-02-06T01:05:32.798Z,-3.5
2023-02-06T01:08:20.273Z,-3.4
2023-02-06T01:11:07.700Z,-3.4
2023-02-06T01:13:56.146Z,-3.4
2023-02-06T01:16:43.616Z,-3.4
2023-02-06T01:19:31.044Z,-3.4
2023-02-06T01:22:18.512Z,-3.4
2023-02-06T01:25:05.789Z,-3.4
2023-02-06T01:27:54.017Z,-3.4
2023-02-06T01:30:41.609Z,-3.4
2023-02-06T01:33:29.005Z,-3.4
2023-02-06T01:36:16.283Z,-3.4
2023-02-06T01:39:05.092Z,-3.4
2023-02-06T01:41:52.902Z,-3.3
2023-02-06T01:44:40.538Z,-3.3
2023-02-06T01:47:28.354Z,-3.3
2023-02-06T01:50:15.764Z,-3.3
2023-02-06T01:53:03.208Z,-3.3
2023-02-06T01:55:52.785Z,-3.3
2023-02-06T01:58:41.714Z,-3.3
2023-02-06T02:01:32.454Z,-3.3
2023-02-06T02:04:20.140Z,-3.3
2023-02-06T02:07:11.461Z,-3.3
2023-02-06T02:10:04.965Z,-3.3
2023-02-06T02:12:52.949Z,-3.2
2023-02-06T02:15:40.520Z,-3.2
2023-02-06T02:18:41.029Z,-3.2
2023-02-06T02:21:42.877Z,-3.2
2023-02-06T02:25:19.303Z,-3.2
2023-02-06T02:29:00.313Z,-3.2
2023-02-06T02:32:11.131Z,-3.2
2023-02-06T02:35:15.948Z,-3.2
2023-02-06T02:38:09.042Z,-3.1
2023-02-06T02:41:05.460Z,-3.1
2023-02-06T02:44:00.721Z,-3.1
2023-02-06T02:46:52.958Z,-3.1
2023-02-06T02:49:43.736Z,-3.1
2023-02-06T02:52:31.518Z,-3.1
2023-02-06T02:55:18.815Z,-3.1
2023-02-06T02:58:08.214Z,-3.1
2023-02-06T03:01:00.733Z,-3.1
2023-02-06T03:03:53.958Z,-3.1
2023-02-06T03:06:46.392Z,-3.1
2023-02-06T03:09:45.960Z,-3
2023-02-06T03:12:44.461Z,-3.1
2023-02-06T03:15:37.839Z,-3
2023-02-06T03:18:33.208Z,-3
2023-02-06T03:21:26.128Z,-3
2023-02-06T03:24:14.236Z,-3
2023-02-06T03:27:05.777Z,-3
2023-02-06T03:29:56.672Z,-3
2023-02-06T03:32:45.959Z,-3
2023-02-06T03:35:37.741Z,-3
2023-02-06T03:38:27.086Z,-3
2023-02-06T03:41:14.539Z,-3
2023-02-06T03:44:03.662Z,-3.1
2023-02-06T03:46:54.765Z,-3.1
2023-02-06T03:49:45.149Z,-3.1
2023-02-06T03:52:34.571Z,-3.1
2023-02-06T03:55:26.866Z,-3.1
2023-02-06T03:58:14.240Z,-3
2023-02-06T04:01:02.057Z,-3.1
2023-02-06T04:03:51.950Z,-3.1
2023-02-06T04:06:39.668Z,-3.1
2023-02-06T04:09:28.185Z,-3.1
2023-02-06T04:12:15.588Z,-3.1
2023-02-06T04:15:03.857Z,-3.1
2023-02-06T04:17:59.993Z,-3.1
2023-02-06T04:20:48.497Z,-3.1
2023-02-06T04:23:36.988Z,-3.1
2023-02-06T04:26:24.576Z,-3.1
2023-02-06T04:29:12.042Z,-3.1
2023-02-06T04:31:59.759Z,-3.1
2023-02-06T04:34:47.722Z,-3.1
2023-02-06T04:37:35.553Z,-3
2023-02-06T04:40:22.865Z,-3
2023-02-06T04:43:10.187Z,-3
2023-02-06T04:45:57.533Z,-3
2023-02-06T04:48:44.930Z,-3
2023-02-06T04:51:32.458Z,-3.1
2023-02-06T04:54:19.836Z,-3.1
2023-02-06T04:57:07.307Z,-3.1
2023-02-06T04:59:54.813Z,-3
2023-02-06T05:02:42.154Z,-3
2023-02-06T05:05:29.624Z,-3
2023-02-06T05:08:16.927Z,-3.1
2023-02-06T05:11:04.409Z,-3.1
2023-02-06T05:13:51.956Z,-3.1
2023-02-06T05:16:39.379Z,-3.1
2023-02-06T05:19:27.673Z,-3.1
2023-02-06T05:22:15.062Z,-3.1
2023-02-06T05:25:02.757Z,-3.1
2023-02-06T05:27:51.652Z,-3.1
2023-02-06T05:30:39.466Z,-3.1
2023-02-06T05:33:28.331Z,-3.1
2023-02-06T05:36:16.461Z,-3
2023-02-06T05:39:04.180Z,-3
2023-02-06T05:41:51.493Z,-3
2023-02-06T05:44:39.118Z,-3
2023-02-06T05:47:27.578Z,-3
2023-02-06T05:50:14.922Z,-3
2023-02-06T05:53:02.713Z,-3
2023-02-06T05:55:50.422Z,-3
2023-02-06T05:58:37.989Z,-3
2023-02-06T06:01:26.262Z,-3
2023-02-06T06:04:13.857Z,-3
2023-02-06T06:07:01.401Z,-3
2023-02-06T06:09:48.736Z,-2.9
2023-02-06T06:12:36.010Z,-2.9
2023-02-06T06:15:23.414Z,-2.9
2023-02-06T06:18:10.732Z,-2.9
2023-02-06T06:20:57.976Z,-2.9
2023-02-06T06:23:45.343Z,-2.9
2023-02-06T06:26:32.696Z,-2.9
2023-02-06T06:29:20.353Z,-3
2023-02-06T06:32:07.706Z,-3
2023-02-06T06:34:55.517Z,-3
2023-02-06T06:37:42.761Z,-2.9
2023-02-06T06:40:30.082Z,-2.9
2023-02-06T06:43:17.447Z,-2.9
2023-02-06T06:46:05.135Z,-2.9
2023-02-06T06:48:52.922Z,-2.9
2023-02-06T06:51:40.617Z,-2.9
2023-02-06T06:54:28.714Z,-2.9
2023-02-06T06:57:16.215Z,-2.9
2023-02-06T07:00:03.773Z,-2.9
2023-02-06T07:02:53.920Z,-2.9
2023-02-06T07:05:42.153Z,-2.9
2023-02-06T07:08:29.506Z,-2.9
2023-02-06T07:11:16.928Z,-2.8
2023-02-06T07:14:04.435Z,-2.8
2023-02-06T07:16:51.745Z,-2.8
2023-02-06T07:19:41.009Z,-2.8
2023-02-06T07:22:32.483Z,-2.8
2023-02-06T07:25:19.848Z,-2.8
2023-02-06T07:28:07.273Z,-2.7
2023-02-06T07:30:54.974Z,-2.7
2023-02-06T07:33:45.110Z,-2.6
2023-02-06T07:36:32.840Z,-2.6
2023-02-06T07:39:20.676Z,-2.6
2023-02-06T07:42:08.071Z,-2.6
2023-02-06T07:44:56.676Z,-2.5
2023-02-06T07:47:44.265Z,-2.5
2023-02-06T07:50:31.578Z,-2.5
2023-02-06T07:53:19.798Z,-2.5
2023-02-06T07:56:07.232Z,-2.4
2023-02-06T07:58:56.306Z,-2.4
2023-02-06T08:01:43.826Z,-2.4
2023-02-06T08:04:31.270Z,-2.3
2023-02-06T08:07:20.133Z,-2.4
2023-02-06T08:10:07.596Z,-2.3
2023-02-06T08:12:55.221Z,-2.3
2023-02-06T08:15:42.522Z,-2.2
2023-02-06T08:18:29.893Z,-2.2
2023-02-06T08:21:17.617Z,-2.1
2023-02-06T08:24:07.474Z,-2.1
2023-02-06T08:26:57.013Z,-2
2023-02-06T08:29:44.474Z,-1.9
2023-02-06T08:32:32.247Z,-1.8
2023-02-06T08:35:20.396Z,-1.8
2023-02-06T08:38:08.136Z,-1.8
2023-02-06T08:40:55.581Z,-1.7
2023-02-06T08:43:43.032Z,-1.7
2023-02-06T08:46:30.977Z,-1.7
2023-02-06T08:49:19.288Z,-1.6
2023-02-06T08:52:11.420Z,-1.5
2023-02-06T08:54:58.750Z,-1.5
2023-02-06T08:57:46.087Z,-1.4
2023-02-06T09:00:33.534Z,-1.4
2023-02-06T09:03:20.856Z,-1.3
2023-02-06T09:06:10.399Z,-1.3
2023-02-06T09:08:58.770Z,-1.3
2023-02-06T09:11:46.105Z,-1.2
2023-02-06T09:14:33.527Z,-1.2
2023-02-06T09:17:21.292Z,-1.2
2023-02-06T09:20:08.735Z,-1.1
2023-02-06T09:22:56.342Z,-1
2023-02-06T09:25:43.720Z,-1
2023-02-06T09:28:31.227Z,-0.9
2023-02-06T09:31:19.130Z,-0.9
2023-02-06T09:34:06.566Z,-0.8
2023-02-06T09:36:55.876Z,-0.8
2023-02-06T09:39:46.792Z,-0.7
2023-02-06T09:42:34.158Z,-0.7
2023-02-06T09:45:22.915Z,-0.6
2023-02-06T09:48:13.618Z,-0.6
2023-02-06T09:51:05.305Z,-0.6
2023-02-06T09:54:00.707Z,-0.5
2023-02-06T09:57:03.413Z,-0.5
2023-02-06T09:59:56.203Z,-0.4
2023-02-06T10:02:47.910Z,-0.4
2023-02-06T10:05:51.945Z,-0.4
2023-02-06T10:08:49.126Z,-0.4
2023-02-06T10:11:44.906Z,-0.4
2023-02-06T10:14:39.484Z,-0.3
2023-02-06T10:17:32.702Z,-0.4
2023-02-06T10:20:22.902Z,-0.3
2023-02-06T10:23:18.075Z,-0.3
2023-02-06T10:26:11.496Z,-0.3
2023-02-06T10:29:01.862Z,-0.3
2023-02-06T10:31:50.174Z,-0.3
2023-02-06T10:34:49.033Z,-0.3
2023-02-06T10:37:50.043Z,-0.3
2023-02-06T10:41:07.861Z,-0.2
2023-02-06T10:44:06.222Z,-0.2
2023-02-06T10:47:11.253Z,-0.1
2023-02-06T10:50:13.209Z,-0.1
2023-02-06T10:53:08.800Z,0
2023-02-06T10:56:02.872Z,0.1
2023-02-06T10:58:54.463Z,0.1
2023-02-06T11:01:46.185Z,0.1
2023-02-06T11:04:36.772Z,0.2
2023-02-06T11:07:29.359Z,0.2
2023-02-06T11:10:19.574Z,0.4
2023-02-06T11:13:09.873Z,0.6
2023-02-06T11:16:00.873Z,0.7
2023-02-06T11:18:53.418Z,0.9
2023-02-06T11:21:43.910Z,1.1
2023-02-06T11:24:35.602Z,1.2
2023-02-06T11:27:24.976Z,1.4
2023-02-06T11:30:13.529Z,1.5
2023-02-06T11:33:12.238Z,1.7
2023-02-06T11:36:06.192Z,1.8
2023-02-06T11:39:08.659Z,1.9
2023-02-06T11:42:08.276Z,2
2023-02-06T11:45:05.899Z,2.1
2023-02-06T11:48:10.176Z,2.3
2023-02-06T11:51:21.481Z,2.3
2023-02-06T11:54:10.009Z,2.4
2023-02-06T11:57:05.879Z,2.5
2023-02-06T12:00:05.587Z,2.5
2023-02-06T12:03:06.756Z,2.6
2023-02-06T12:06:12.848Z,2.6
2023-02-06T12:09:02.368Z,2.6
2023-02-06T12:11:56.124Z,2.7
2023-02-06T12:14:49.834Z,2.8
2023-02-06T12:17:42.177Z,2.8
2023-02-06T12:20:40.298Z,2.8
2023-02-06T12:23:34.054Z,2.8
2023-02-06T12:26:27.673Z,2.8
2023-02-06T12:29:18.450Z,2.8
2023-02-06T12:32:10.855Z,2.9
2023-02-06T12:35:04.238Z,3
2023-02-06T12:38:01.756Z,3
2023-02-06T12:40:58.197Z,3.1
2023-02-06T12:43:58.612Z,3.1
2023-02-06T12:46:51.995Z,3.1
2023-02-06T12:49:46.301Z,3
2023-02-06T12:52:47.030Z,2.9
2023-02-06T12:55:36.921Z,2.8
2023-02-06T12:58:33.466Z,2.7
2023-02-06T13:01:35.194Z,2.6
2023-02-06T13:04:36.634Z,2.6
2023-02-06T13:07:24.859Z,2.6
2023-02-06T13:10:12.697Z,2.5
2023-02-06T13:13:04.425Z,2.5
2023-02-06T13:16:09.474Z,2.5
2023-02-06T13:18:56.909Z,2.4
2023-02-06T13:21:47.993Z,2.4
2023-02-06T13:24:38.529Z,2.5
2023-02-06T13:27:28.638Z,2.5
2023-02-06T13:30:23.477Z,2.6
2023-02-06T13:33:32.788Z,2.6
2023-02-06T13:36:26.992Z,2.7
2023-02-06T13:39:35.189Z,2.8
2023-02-06T13:42:22.592Z,2.9
2023-02-06T13:45:19.965Z,3
2023-02-06T13:48:11.489Z,3
2023-02-06T13:51:22.354Z,3.1
2023-02-06T13:54:27.984Z,3.2
2023-02-06T13:57:34.115Z,3.2
2023-02-06T14:00:39.730Z,3.2
2023-02-06T14:03:31.659Z,3.3
2023-02-06T14:06:22.783Z,3.4
2023-02-06T14:09:32.314Z,3.5
2023-02-06T14:12:38.180Z,3.6
2023-02-06T14:15:38.069Z,3.7
2023-02-06T14:18:43.349Z,3.6
2023-02-06T14:21:37.175Z,3.6
2023-02-06T14:24:36.940Z,3.6
2023-02-06T14:27:49.122Z,3.4
2023-02-06T14:30:48.396Z,3.4
2023-02-06T14:33:43.869Z,3.3
2023-02-06T14:36:45.280Z,3.3
2023-02-06T14:39:55.002Z,3.2
2023-02-06T14:42:43.896Z,3.1
2023-02-06T14:45:40.969Z,2.9
2023-02-06T14:48:35.407Z,2.8
2023-02-06T14:51:28.033Z,2.6
2023-02-06T14:54:19.855Z,2.5
2023-02-06T14:57:16.256Z,2.4
2023-02-06T15:00:08.424Z,2.2
2023-02-06T15:03:04.487Z,2
2023-02-06T15:05:59.339Z,1.8
2023-02-06T15:08:49.610Z,1.6
2023-02-06T15:11:37.326Z,1.5
2023-02-06T15:14:24.800Z,1.3
2023-02-06T15:17:15.167Z,1.2
2023-02-06T15:20:05.511Z,1.1
2023-02-06T15:23:17.980Z,1
2023-02-06T15:26:19.081Z,0.8
2023-02-06T15:29:16.714Z,0.7
2023-02-06T15:32:07.950Z,0.6
2023-02-06T15:35:06.804Z,0.5
2023-02-06T15:38:06.391Z,0.4
2023-02-06T15:40:58.525Z,0.3
2023-02-06T15:43:49.622Z,0.1
2023-02-06T15:46:41.169Z,0
2023-02-06T15:49:29.886Z,-0.1
2023-02-06T15:52:22.561Z,-0.2
2023-02-06T15:55:20.496Z,-0.3
2023-02-06T15:58:11.228Z,-0.4
2023-02-06T16:01:00.335Z,-0.5
2023-02-06T16:03:50.257Z,-0.6
2023-02-06T16:06:42.755Z,-0.7
2023-02-06T16:09:31.587Z,-0.8
2023-02-06T16:12:24.645Z,-0.8
2023-02-06T16:15:16.614Z,-0.9
2023-02-06T16:18:14.667Z,-1
2023-02-06T16:21:10.945Z,-1
2023-02-06T16:24:09.248Z,-1.1
2023-02-06T16:27:03.454Z,-1.2
2023-02-06T16:30:02.552Z,-1.3
2023-02-06T16:32:51.644Z,-1.3
2023-02-06T16:35:41.006Z,-1.4
2023-02-06T16:38:29.301Z,-1.4
2023-02-06T16:41:17.066Z,-1.4
2023-02-06T16:44:11.916Z,-1.5
2023-02-06T16:47:00.623Z,-1.5
2023-02-06T16:49:48.338Z,-1.6
2023-02-06T16:52:36.572Z,-1.6
2023-02-06T16:55:27.699Z,-1.7
2023-02-06T16:58:15.079Z,-1.7
2023-02-06T17:01:06.077Z,-1.8
2023-02-06T17:04:00.018Z,-1.8
2023-02-06T17:06:47.578Z,-1.9
2023-02-06T17:09:35.240Z,-1.9
2023-02-06T17:12:22.636Z,-2
2023-02-06T17:15:10.022Z,-2
2023-02-06T17:17:58.778Z,-2.1
2023-02-06T17:20:46.429Z,-2.1
2023-02-06T17:23:37.481Z,-2.1
2023-02-06T17:26:26.015Z,-2.1
2023-02-06T17:29:13.396Z,-2.1
2023-02-06T17:32:00.758Z,-2.1
2023-02-06T17:34:48.985Z,-2.2
2023-02-06T17:37:38.528Z,-2.2
2023-02-06T17:40:26.843Z,-2.3
2023-02-06T17:43:16.361Z,-2.3
2023-02-06T17:46:03.923Z,-2.3
2023-02-06T17:48:51.712Z,-2.3
2023-02-06T17:51:39.106Z,-2.3
2023-02-06T17:54:28.356Z,-2.4
2023-02-06T17:57:15.840Z,-2.4
2023-02-06T18:00:03.546Z,-2.4
2023-02-06T18:02:54.978Z,-2.5
2023-02-06T18:05:44.616Z,-2.5
2023-02-06T18:08:41.934Z,-2.6
2023-02-06T18:11:30.334Z,-2.6
2023-02-06T18:14:20.285Z,-2.6
2023-02-06T18:17:07.572Z,-2.6
2023-02-06T18:19:56.064Z,-2.7
2023-02-06T18:22:43.615Z,-2.7
2023-02-06T18:25:31.878Z,-2.8
2023-02-06T18:28:19.187Z,-2.8
2023-02-06T18:31:06.749Z,-2.8
2023-02-06T18:34:06.746Z,-2.8
2023-02-06T18:36:55.498Z,-2.8
2023-02-06T18:39:42.806Z,-2.8
2023-02-06T18:42:30.262Z,-2.8
2023-02-06T18:45:49.776Z,-2.8
2023-02-06T18:48:37.334Z,-2.8
2023-02-06T18:51:24.589Z,-2.9
2023-02-06T18:54:13.638Z,-2.9
2023-02-06T18:57:00.990Z,-3
2023-02-06T18:59:48.652Z,-3
2023-02-06T19:02:36.049Z,-3
2023-02-06T19:05:23.512Z,-3.1
2023-02-06T19:08:10.965Z,-3.1
2023-02-06T19:10:58.246Z,-3.2
2023-02-06T19:13:45.559Z,-3.2
2023-02-06T19:16:33.216Z,-3.1
2023-02-06T19:19:22.826Z,-3.1
2023-02-06T19:22:10.227Z,-3.2
2023-02-06T19:24:57.618Z,-3.2
2023-02-06T19:27:45.586Z,-3.2
2023-02-06T19:30:33.007Z,-3.2
2023-02-06T19:33:20.349Z,-3.3
2023-02-06T19:36:07.647Z,-3.4
2023-02-06T19:38:57.270Z,-3.4
2023-02-06T19:41:46.951Z,-3.4
2023-02-06T19:44:34.253Z,-3.4
2023-02-06T19:47:22.060Z,-3.5
2023-02-06T19:50:10.819Z,-3.5
2023-02-06T19:52:59.598Z,-3.5
2023-02-06T19:55:46.996Z,-3.6
2023-02-06T19:58:34.480Z,-3.6
2023-02-06T20:01:21.826Z,-3.6
2023-02-06T20:04:10.312Z,-3.7
2023-02-06T20:06:58.110Z,-3.7
2023-02-06T20:09:45.497Z,-3.7
2023-02-06T20:12:32.936Z,-3.7
2023-02-06T20:15:20.323Z,-3.7
2023-02-06T20:18:07.713Z,-3.7
2023-02-06T20:20:55.032Z,-3.7
2023-02-06T20:23:42.923Z,-3.7
2023-02-06T20:26:30.246Z,-3.7
2023-02-06T20:29:20.482Z,-3.8
2023-02-06T20:32:10.137Z,-3.8
2023-02-06T20:35:00.061Z,-3.8
2023-02-06T20:37:47.763Z,-3.9
2023-02-06T20:40:35.432Z,-3.9
2023-02-06T20:43:28.566Z,-3.9
2023-02-06T20:46:16.338Z,-3.9
2023-02-06T20:49:05.342Z,-3.9
2023-02-06T20:51:58.127Z,-3.9
2023-02-06T20:54:45.974Z,-4
2023-02-06T20:57:35.379Z,-4
2023-02-06T21:00:23.265Z,-4
2023-02-06T21:03:10.647Z,-4
2023-02-06T21:05:58.024Z,-4
2023-02-06T21:08:45.534Z,-4.1
2023-02-06T21:11:34.753Z,-4.1
2023-02-06T21:14:25.025Z,-4.1
2023-02-06T21:17:14.459Z,-4.1
2023-02-06T21:20:02.043Z,-4.2
2023-02-06T21:22:51.546Z,-4.2
2023-02-06T21:25:39.881Z,-4.3
2023-02-06T21:28:28.563Z,-4.3
2023-02-06T21:31:17.502Z,-4.4
2023-02-06T21:34:07.669Z,-4.4
2023-02-06T21:36:59.646Z,-4.4
2023-02-06T21:39:47.048Z,-4.4
2023-02-06T21:42:34.456Z,-4.4
2023-02-06T21:45:21.907Z,-4.4
2023-02-06T21:48:09.269Z,-4.4
2023-02-06T21:50:56.546Z,-4.4
2023-02-06T21:53:44.082Z,-4.3
2023-02-06T21:56:32.127Z,-4.4
2023-02-06T21:59:22.491Z,-4.4
2023-02-06T22:02:09.895Z,-4.4
2023-02-06T22:04:57.304Z,-4.4
2023-02-06T22:07:44.861Z,-4.4
2023-02-06T22:10:32.736Z,-4.4
2023-02-06T22:13:21.252Z,-4.4
2023-02-06T22:16:08.598Z,-4.5
2023-02-06T22:18:57.344Z,-4.5
2023-02-06T22:21:45.420Z,-4.5
2023-02-06T22:24:32.714Z,-4.5
2023-02-06T22:27:20.032Z,-4.5
2023-02-06T22:30:10.048Z,-4.5
2023-02-06T22:32:58.254Z,-4.5
2023-02-06T22:35:45.543Z,-4.6
2023-02-06T22:38:32.872Z,-4.6
2023-02-06T22:41:21.149Z,-4.6
2023-02-06T22:44:08.860Z,-4.6
2023-02-06T22:47:00.682Z,-4.6
2023-02-06T22:49:48.179Z,-4.6
2023-02-06T22:52:36.556Z,-4.6
2023-02-06T22:56:25.488Z,-4.7
2023-02-06T22:59:15.755Z,-4.7
2023-02-06T23:02:05.420Z,-4.6
2023-02-06T23:04:52.800Z,-4.6
2023-02-06T23:07:40.330Z,-4.6
2023-02-06T23:10:28.714Z,-4.7
2023-02-06T23:13:15.958Z,-4.7
2023-02-06T23:16:03.276Z,-4.8
2023-02-06T23:18:51.121Z,-5
2023-02-06T23:21:38.524Z,-5
2023-02-06T23:24:28.079Z,-5
2023-02-06T23:27:15.531Z,-5
2023-02-06T23:30:04.626Z,-5.1
2023-02-06T23:32:53.159Z,-5.1
2023-02-06T23:35:40.914Z,-5
2023-02-06T23:38:29.240Z,-5
2023-02-06T23:41:16.608Z,-4.9
2023-02-06T23:44:07.729Z,-4.9
2023-02-06T23:46:55.983Z,-4.9
2023-02-06T23:49:43.273Z,-4.9
2023-02-06T23:52:30.568Z,-4.9
2023-02-06T23:55:17.894Z,-5
2023-02-06T23:58:06.881Z,-5.1
